Terminal Aerodrome Forecast
Issued by NWS Atlanta, GA

Home | Current Version | Previous Version | Text Only | Print | Product List | Glossary On
Versions: 1 2 3 4 5 6 7 8 9 10 11 12 13 14 15 16 17 18 19 20 21 22 23 24 25 26 27 28 29 30 31 32 33 34 35 36 37 38 39 40 41 42 43
000
FTUS42 KFFC 061353 AAA
TAFATL
TAF AMD
KATL 061353Z 0614/0718 29004KT P6SM OVC007
     FM061500 28008KT P6SM SCT012 BKN030
     FM061700 24010KT P6SM BKN040
     FM061900 27010KT P6SM VCSH BKN050
     FM070000 28007KT P6SM SCT050 BKN100
     FM070200 28006KT P6SM SCT070 BKN150
     FM071200 29005KT P6SM SCT200=

USA.gov is the U.S. government's official web portal to all federal, state and local government web resources and services.